Time;durP1;ratioP1;P1;durP2;ratioP2;P2;SDS_P1;SDS_P2;PMS_P1;PMS_P2;Temp;Humidity;BMP_temperature;BMP_pressure;BME280_temperature;BME280_humidity;BME280_pressure;Samples;Min_cycle;Max_cycle;Signal;HPM_P1;HPM_P2
2022/08/07 00:01:18;;;;;;;1.83;0.45;;;11.30;99.90;;;;;;4998751;28;20109;-80
2022/08/07 00:03:46;;;;;;;0.22;0.22;;;11.30;99.90;;;;;;5016275;28;20034;-79
2022/08/07 00:06:13;;;;;;;2.40;0.40;;;11.40;99.90;;;;;;5016494;28;20383;-79
2022/08/07 00:08:41;;;;;;;0.40;0.40;;;11.40;99.90;;;;;;5015764;28;20022;-80
2022/08/07 00:11:08;;;;;;;0.32;0.30;;;11.40;99.90;;;;;;5015163;28;20126;-78
2022/08/07 00:13:39;;;;;;;1.48;0.40;;;11.40;99.90;;;;;;5014517;28;20018;-79
2022/08/07 00:16:08;;;;;;;1.27;0.68;;;11.50;99.90;;;;;;5016066;28;20025;-80
2022/08/07 00:18:36;;;;;;;0.35;0.35;;;11.50;99.90;;;;;;5012873;28;20467;-80
2022/08/07 00:21:10;;;;;;;0.80;0.50;;;11.60;99.90;;;;;;5015507;28;20467;-79
2022/08/07 00:23:40;;;;;;;0.30;0.30;;;11.70;99.90;;;;;;5012001;28;20033;-80
2022/08/07 00:26:10;;;;;;;0.52;0.52;;;11.70;99.90;;;;;;5015519;28;20056;-80
2022/08/07 00:28:38;;;;;;;0.65;0.43;;;11.70;99.90;;;;;;5013000;28;20029;-80
2022/08/07 00:31:08;;;;;;;0.50;0.40;;;11.80;99.90;;;;;;5015387;28;20421;-80
2022/08/07 00:33:38;;;;;;;0.30;0.30;;;11.90;99.90;;;;;;5013260;28;20018;-80
2022/08/07 00:36:07;;;;;;;2.97;0.40;;;11.90;99.90;;;;;;5015125;28;20038;-80
2022/08/07 00:38:36;;;;;;;2.15;0.45;;;11.90;99.90;;;;;;5012191;28;20109;-79
2022/08/07 00:41:04;;;;;;;1.05;0.57;;;12.00;99.90;;;;;;5014924;28;20030;-80
2022/08/07 00:43:32;;;;;;;1.30;0.50;;;12.10;99.90;;;;;;5015064;28;20022;-80
2022/08/07 00:46:01;;;;;;;1.00;0.63;;;12.10;99.90;;;;;;5015163;28;20356;-78
2022/08/07 00:48:29;;;;;;;0.70;0.50;;;12.20;99.90;;;;;;5014693;28;20030;-80
2022/08/07 00:50:56;;;;;;;0.63;0.50;;;12.20;99.90;;;;;;5014970;28;20522;-80
2022/08/07 00:53:23;;;;;;;0.50;0.35;;;12.20;99.90;;;;;;5014374;28;20030;-78
2022/08/07 00:55:51;;;;;;;0.68;0.50;;;12.20;99.90;;;;;;5014965;28;20470;-79
2022/08/07 00:58:20;;;;;;;1.70;0.50;;;12.20;99.90;;;;;;5014515;28;20435;-79
2022/08/07 01:00:47;;;;;;;1.25;0.80;;;12.20;99.90;;;;;;4997317;28;20124;-80
2022/08/07 01:03:15;;;;;;;3.63;0.45;;;12.30;99.90;;;;;;5012327;28;20034;-82
2022/08/07 01:05:43;;;;;;;0.82;0.50;;;12.40;99.90;;;;;;5014812;28;20018;-80
2022/08/07 01:08:14;;;;;;;2.42;0.90;;;12.50;99.90;;;;;;5014425;28;20030;-80
2022/08/07 01:10:41;;;;;;;0.98;0.73;;;12.60;99.90;;;;;;5013880;28;20033;-80
2022/08/07 01:13:09;;;;;;;0.73;0.52;;;12.60;99.90;;;;;;5014744;28;20081;-79
2022/08/07 01:15:37;;;;;;;1.20;0.60;;;12.70;99.90;;;;;;4997180;28;20025;-81
2022/08/07 01:18:05;;;;;;;0.95;0.55;;;12.80;99.90;;;;;;5014179;28;20050;-80
2022/08/07 01:20:42;;;;;;;0.68;0.43;;;12.90;99.90;;;;;;5014131;28;20029;-81
2022/08/07 01:23:11;;;;;;;0.40;0.40;;;13.00;99.90;;;;;;5014291;28;20084;-81
2022/08/07 01:25:39;;;;;;;0.43;0.38;;;13.00;99.90;;;;;;5014618;28;20406;-79
2022/08/07 01:28:06;;;;;;;0.77;0.35;;;13.00;99.90;;;;;;5014122;28;20033;-79
2022/08/07 01:30:36;;;;;;;0.45;0.30;;;13.10;99.90;;;;;;5011415;28;20021;-77
2022/08/07 01:33:03;;;;;;;0.40;0.30;;;13.10;99.90;;;;;;5014571;28;20553;-78
2022/08/07 01:35:30;;;;;;;0.30;0.30;;;13.10;99.90;;;;;;5014317;28;20463;-79
2022/08/07 01:37:58;;;;;;;0.57;0.30;;;13.10;99.90;;;;;;5013959;28;20042;-79
2022/08/07 01:40:27;;;;;;;0.32;0.32;;;13.10;99.90;;;;;;5013938;28;20041;-78
2022/08/07 01:42:55;;;;;;;1.20;0.50;;;13.10;99.90;;;;;;5011607;28;20025;-79
2022/08/07 01:45:23;;;;;;;0.73;0.30;;;13.10;99.90;;;;;;5014123;28;20022;-77
2022/08/07 01:47:50;;;;;;;0.32;0.32;;;13.00;99.90;;;;;;5014285;28;20060;-79
2022/08/07 01:50:18;;;;;;;0.30;0.30;;;13.00;99.90;;;;;;5013297;28;20030;-79
2022/08/07 01:52:49;;;;;;;1.15;0.30;;;13.10;99.90;;;;;;5011585;28;20018;-79
2022/08/07 01:55:17;;;;;;;0.98;0.30;;;13.10;99.90;;;;;;5010909;28;20102;-79
2022/08/07 01:57:47;;;;;;;0.63;0.35;;;13.20;99.90;;;;;;5013676;28;20022;-79
2022/08/07 02:00:15;;;;;;;0.30;0.30;;;13.40;99.90;;;;;;5013784;28;20013;-79
2022/08/07 02:02:50;;;;;;;0.60;0.30;;;13.50;99.90;;;;;;5011355;28;20120;-80
2022/08/07 02:05:32;;;;;;;0.30;0.30;;;13.60;99.90;;;;;;5013078;28;20058;-79
2022/08/07 02:08:05;;;;;;;0.30;0.30;;;13.70;99.90;;;;;;5013922;28;20551;-79
2022/08/07 02:10:35;;;;;;;0.50;0.30;;;13.80;99.90;;;;;;4995602;28;20386;-79
2022/08/07 02:13:04;;;;;;;0.63;0.30;;;13.90;99.90;;;;;;5013840;28;20026;-79
2022/08/07 02:15:33;;;;;;;0.20;0.20;;;13.90;99.90;;;;;;5013449;28;20038;-80
2022/08/07 02:18:03;;;;;;;0.30;0.30;;;14.00;99.90;;;;;;5012734;28;20014;-79
2022/08/07 02:20:32;;;;;;;0.45;0.30;;;14.10;99.90;;;;;;5013831;28;20552;-78
2022/08/07 02:23:05;;;;;;;0.45;0.20;;;14.00;99.90;;;;;;5008864;28;20033;-79
2022/08/07 02:25:36;;;;;;;0.63;0.30;;;13.90;99.90;;;;;;5013786;28;20018;-79
2022/08/07 02:28:05;;;;;;;0.20;0.20;;;13.80;99.90;;;;;;5013623;28;20077;-78
2022/08/07 02:30:35;;;;;;;1.15;0.20;;;13.70;99.90;;;;;;5013481;28;20057;-79
2022/08/07 02:33:05;;;;;;;3.03;0.30;;;13.80;99.90;;;;;;5013804;28;20018;-78
2022/08/07 02:35:34;;;;;;;0.60;0.30;;;13.80;99.90;;;;;;5013699;28;20030;-79
2022/08/07 02:38:05;;;;;;;1.25;0.30;;;13.90;99.90;;;;;;5013485;28;20033;-78
2022/08/07 02:40:33;;;;;;;0.32;0.30;;;14.00;99.90;;;;;;5013555;28;20100;-79
2022/08/07 02:43:02;;;;;;;0.30;0.30;;;14.00;99.90;;;;;;5013466;28;20056;-79
2022/08/07 02:45:32;;;;;;;0.20;0.20;;;13.90;99.90;;;;;;5013511;28;20030;-80
2022/08/07 02:48:00;;;;;;;0.20;0.20;;;13.90;99.90;;;;;;5013419;28;20026;-79
2022/08/07 02:50:28;;;;;;;0.30;0.30;;;13.90;99.90;;;;;;5013136;28;20113;-79
2022/08/07 02:53:03;;;;;;;0.30;0.30;;;13.80;99.90;;;;;;5013238;28;20033;-79
2022/08/07 02:55:34;;;;;;;0.95;0.20;;;13.80;99.90;;;;;;5022909;28;20030;-78
2022/08/07 02:58:09;;;;;;;0.47;0.40;;;13.60;99.90;;;;;;5012942;28;20062;-79
2022/08/07 03:00:40;;;;;;;0.88;0.40;;;13.60;99.90;;;;;;5012528;28;20088;-79
2022/08/07 03:03:09;;;;;;;0.30;0.30;;;13.40;99.90;;;;;;5012264;28;20030;-78
2022/08/07 03:05:37;;;;;;;0.45;0.40;;;13.30;99.90;;;;;;5013056;28;20032;-77
2022/08/07 03:08:09;;;;;;;0.30;0.30;;;13.20;99.90;;;;;;5011799;28;20498;-79
2022/08/07 03:10:37;;;;;;;0.30;0.30;;;13.20;99.90;;;;;;5012406;28;20364;-81
2022/08/07 03:13:09;;;;;;;0.20;0.20;;;13.20;99.90;;;;;;5012931;28;20041;-81
2022/08/07 03:15:37;;;;;;;0.57;0.35;;;13.40;99.90;;;;;;5011530;28;20037;-80
2022/08/07 03:18:05;;;;;;;0.30;0.30;;;13.50;99.90;;;;;;5012335;28;20167;-80
2022/08/07 03:20:33;;;;;;;0.40;0.30;;;13.70;99.90;;;;;;5009639;28;20026;-78
2022/08/07 03:23:02;;;;;;;0.50;0.30;;;13.80;99.90;;;;;;5011901;28;20034;-77
2022/08/07 03:25:35;;;;;;;3.75;0.40;;;13.90;99.90;;;;;;4997899;28;20031;-80
2022/08/07 03:28:12;;;;;;;0.20;0.20;;;13.90;99.90;;;;;;4993356;28;20468;-82
2022/08/07 03:30:41;;;;;;;0.28;0.28;;;13.90;99.90;;;;;;4972866;28;20039;-81
2022/08/07 03:33:10;;;;;;;0.20;0.20;;;13.90;99.90;;;;;;5010850;28;20026;-78
2022/08/07 03:35:40;;;;;;;0.30;0.30;;;13.90;99.90;;;;;;5011866;28;20022;-79
2022/08/07 03:38:09;;;;;;;0.22;0.20;;;14.00;99.90;;;;;;5012756;28;20029;-78
2022/08/07 03:40:37;;;;;;;0.20;0.20;;;14.10;99.90;;;;;;5012651;28;20029;-77
2022/08/07 03:43:06;;;;;;;0.70;0.28;;;14.20;99.90;;;;;;4994854;28;20041;-80
2022/08/07 03:45:34;;;;;;;0.20;0.20;;;14.30;99.90;;;;;;5013133;28;20072;-76
2022/08/07 03:48:02;;;;;;;0.43;0.20;;;14.40;99.90;;;;;;5009959;28;20109;-76
2022/08/07 03:50:30;;;;;;;0.60;0.20;;;14.40;99.90;;;;;;4995520;28;20018;-79
2022/08/07 03:53:00;;;;;;;1.15;0.40;;;14.40;99.90;;;;;;5011230;28;20202;-78
2022/08/07 03:55:29;;;;;;;1.67;0.40;;;14.30;99.90;;;;;;5012361;28;20022;-79
2022/08/07 03:57:58;;;;;;;0.93;0.60;;;14.20;99.90;;;;;;5012791;28;20037;-79
2022/08/07 04:00:28;;;;;;;0.32;0.30;;;14.10;99.90;;;;;;5012644;28;20014;-78
2022/08/07 04:02:56;;;;;;;0.60;0.40;;;14.00;99.90;;;;;;5010082;28;20038;-76
2022/08/07 04:05:24;;;;;;;0.30;0.30;;;13.90;99.90;;;;;;5012968;28;20026;-79
2022/08/07 04:07:52;;;;;;;1.48;0.88;;;13.80;99.90;;;;;;5012485;28;20038;-79
2022/08/07 04:10:20;;;;;;;0.80;0.60;;;13.70;99.90;;;;;;4994435;28;20033;-80
2022/08/07 04:12:49;;;;;;;1.15;0.50;;;13.60;99.90;;;;;;5012420;28;20110;-79
2022/08/07 04:15:17;;;;;;;1.02;0.50;;;13.60;99.90;;;;;;5012097;28;20022;-78
2022/08/07 04:17:45;;;;;;;0.73;0.55;;;13.50;99.90;;;;;;5015940;28;20022;-79
2022/08/07 04:20:13;;;;;;;2.45;0.70;;;13.50;99.90;;;;;;5016130;28;20029;-79
2022/08/07 04:22:41;;;;;;;2.05;0.65;;;13.40;99.90;;;;;;5015835;28;20132;-80
2022/08/07 04:25:10;;;;;;;0.70;0.63;;;13.40;99.90;;;;;;5014204;28;20034;-77
2022/08/07 04:27:38;;;;;;;1.85;0.70;;;13.40;99.90;;;;;;5016161;28;20022;-78
2022/08/07 04:33:08;;;;;;;0.90;0.70;;;13.40;99.90;;;;;;5001778;28;20060;-78
2022/08/07 04:35:37;;;;;;;0.82;0.60;;;13.40;99.90;;;;;;5016252;28;20080;-78
2022/08/07 04:38:11;;;;;;;2.63;0.57;;;13.30;99.90;;;;;;5016201;28;20080;-79
2022/08/07 04:40:41;;;;;;;3.95;0.85;;;13.30;99.90;;;;;;5014801;28;20026;-78
2022/08/07 04:43:13;;;;;;;1.77;0.70;;;13.30;99.90;;;;;;5014599;28;20045;-79
2022/08/07 04:46:03;;;;;;;1.50;0.68;;;13.20;99.90;;;;;;5016076;28;20040;-79
2022/08/07 04:48:37;;;;;;;2.60;0.90;;;13.30;99.90;;;;;;5015804;28;20097;-78
2022/08/07 04:51:11;;;;;;;1.05;0.63;;;13.30;99.90;;;;;;4996808;28;20050;-76
2022/08/07 04:54:20;;;;;;;1.27;0.55;;;13.40;99.90;;;;;;5015863;28;20025;-78
2022/08/07 04:57:01;;;;;;;1.45;0.70;;;13.40;99.90;;;;;;4999260;28;20113;-79
2022/08/07 04:59:59;;;;;;;1.00;0.80;;;13.40;99.90;;;;;;5015334;28;20021;-79
2022/08/07 05:02:45;;;;;;;1.90;0.47;;;13.50;99.90;;;;;;5015410;28;20042;-78
2022/08/07 05:05:44;;;;;;;0.90;0.40;;;13.60;99.90;;;;;;5015632;28;20026;-80
2022/08/07 05:08:20;;;;;;;0.95;0.40;;;13.50;99.90;;;;;;5015209;28;20030;-79
2022/08/07 05:11:03;;;;;;;0.30;0.30;;;13.50;99.90;;;;;;5014168;28;20046;-79
2022/08/07 05:13:38;;;;;;;0.70;0.40;;;13.50;99.90;;;;;;5015332;28;20112;-78
2022/08/07 05:16:13;;;;;;;0.80;0.50;;;13.40;99.90;;;;;;5015227;28;20523;-79
2022/08/07 05:19:07;;;;;;;0.47;0.30;;;13.50;99.90;;;;;;5015270;28;20394;-79
2022/08/07 05:21:35;;;;;;;0.90;0.35;;;13.40;99.90;;;;;;5015313;28;20022;-79
2022/08/07 05:24:11;;;;;;;0.75;0.40;;;13.40;99.90;;;;;;5014013;28;20061;-77
2022/08/07 05:26:40;;;;;;;1.13;0.40;;;13.40;99.90;;;;;;5014973;28;20387;-77
2022/08/07 05:29:09;;;;;;;0.50;0.30;;;13.40;99.90;;;;;;5015130;28;20470;-78
2022/08/07 05:31:42;;;;;;;0.88;0.50;;;13.40;99.90;;;;;;5011731;28;20026;-79
2022/08/07 05:34:15;;;;;;;0.63;0.55;;;13.40;99.90;;;;;;5014466;28;20025;-79
2022/08/07 05:36:49;;;;;;;0.52;0.40;;;13.40;99.90;;;;;;5013282;28;20076;-78
2022/08/07 05:39:19;;;;;;;0.50;0.40;;;13.40;99.90;;;;;;5015000;28;20029;-78
2022/08/07 05:41:48;;;;;;;1.92;0.50;;;13.50;99.90;;;;;;5013724;28;20378;-79
2022/08/07 05:44:19;;;;;;;1.08;0.40;;;13.50;99.90;;;;;;5013900;28;20030;-79
2022/08/07 05:46:51;;;;;;;0.60;0.40;;;13.50;99.90;;;;;;5014235;28;20403;-79
2022/08/07 05:49:21;;;;;;;1.08;0.70;;;13.60;99.90;;;;;;5014677;28;20057;-78
2022/08/07 05:51:48;;;;;;;0.50;0.45;;;13.60;99.90;;;;;;5013109;28;20030;-79
2022/08/07 05:54:19;;;;;;;0.98;0.65;;;13.70;99.90;;;;;;5012116;28;20022;-79
2022/08/07 05:56:48;;;;;;;1.42;0.70;;;13.80;99.90;;;;;;4995708;28;20026;-79
2022/08/07 05:59:18;;;;;;;1.98;0.68;;;13.80;99.90;;;;;;5013440;28;20052;-79
2022/08/07 06:01:47;;;;;;;5.72;0.95;;;13.80;99.90;;;;;;5014500;28;20100;-79
2022/08/07 06:04:17;;;;;;;1.13;0.85;;;13.90;99.90;;;;;;5014471;28;20026;-78
2022/08/07 06:06:45;;;;;;;2.67;0.55;;;13.90;99.90;;;;;;5014484;28;20029;-78
2022/08/07 06:09:41;;;;;;;1.90;1.00;;;13.90;99.90;;;;;;5012855;28;20061;-79
2022/08/07 06:12:13;;;;;;;1.00;0.63;;;13.90;99.90;;;;;;4998699;28;20054;-78
2022/08/07 06:14:41;;;;;;;1.25;0.68;;;13.80;99.90;;;;;;5014444;28;20034;-79
2022/08/07 06:17:12;;;;;;;0.60;0.45;;;13.80;99.90;;;;;;5013373;28;20403;-79
2022/08/07 06:19:41;;;;;;;0.77;0.57;;;13.70;99.90;;;;;;5014463;28;20471;-79
2022/08/07 06:22:09;;;;;;;0.50;0.47;;;13.70;99.90;;;;;;5012877;28;20081;-77
2022/08/07 06:24:40;;;;;;;0.82;0.57;;;13.70;99.90;;;;;;5014182;28;20034;-78
2022/08/07 06:27:08;;;;;;;0.98;0.40;;;13.60;99.90;;;;;;5012872;28;20112;-79
2022/08/07 06:29:36;;;;;;;2.20;1.33;;;13.60;99.90;;;;;;5014219;28;20026;-77
2022/08/07 06:32:04;;;;;;;4.50;2.65;;;13.60;99.90;;;;;;5011225;28;20383;-78
2022/08/07 06:34:31;;;;;;;2.92;1.20;;;13.50;99.90;;;;;;5012642;28;20025;-78
2022/08/07 06:36:59;;;;;;;3.22;1.70;;;13.50;99.90;;;;;;5013671;28;20386;-78
2022/08/07 06:39:31;;;;;;;1.77;0.60;;;13.40;99.90;;;;;;5013979;28;20024;-77
2022/08/07 06:42:18;;;;;;;1.38;1.10;;;13.40;99.90;;;;;;5011059;28;20025;-78
2022/08/07 06:44:48;;;;;;;1.95;0.75;;;13.30;99.90;;;;;;4995864;28;20046;-79
2022/08/07 06:47:16;;;;;;;1.70;0.70;;;13.20;99.90;;;;;;5013429;28;20127;-78
2022/08/07 06:49:45;;;;;;;1.38;0.60;;;13.10;99.90;;;;;;5013199;28;20024;-77
2022/08/07 06:52:14;;;;;;;1.80;1.00;;;13.10;99.90;;;;;;5011625;28;20014;-76
2022/08/07 06:54:43;;;;;;;3.10;1.60;;;13.10;99.90;;;;;;5012085;28;20014;-76
2022/08/07 06:57:12;;;;;;;1.75;0.70;;;13.00;99.90;;;;;;4995861;28;20407;-76
2022/08/07 06:59:44;;;;;;;6.05;3.30;;;13.00;99.90;;;;;;5013742;28;20022;-77
2022/08/07 07:02:19;;;;;;;4.57;2.58;;;12.90;99.90;;;;;;5013514;28;20030;-77
2022/08/07 07:05:04;;;;;;;11.30;7.68;;;12.90;99.90;;;;;;5013726;28;20029;-77
2022/08/07 07:07:32;;;;;;;5.03;3.50;;;12.80;99.90;;;;;;5012997;28;20080;-76
2022/08/07 07:10:14;;;;;;;3.95;1.42;;;12.80;99.90;;;;;;5013459;28;20356;-76
2022/08/07 07:12:46;;;;;;;2.42;1.30;;;12.70;99.90;;;;;;5012034;28;20510;-77
2022/08/07 07:15:28;;;;;;;4.60;1.38;;;12.70;99.90;;;;;;5014008;28;20041;-77
2022/08/07 07:18:37;;;;;;;4.10;1.80;;;12.70;99.90;;;;;;5012308;28;20466;-77
2022/08/07 07:21:27;;;;;;;4.57;1.13;;;12.60;99.90;;;;;;4953556;29;20074;-78
2022/08/07 07:23:56;;;;;;;2.10;1.40;;;12.60;99.90;;;;;;5009773;28;20156;-77
2022/08/07 07:26:27;;;;;;;4.85;1.48;;;12.60;99.90;;;;;;5010661;28;20026;-76
2022/08/07 07:29:01;;;;;;;4.35;1.48;;;12.50;99.90;;;;;;5011931;28;20018;-77
2022/08/07 07:31:34;;;;;;;3.42;1.63;;;12.50;99.90;;;;;;5013235;28;20026;-77
2022/08/07 07:34:06;;;;;;;2.10;1.40;;;12.40;99.90;;;;;;5012050;28;20479;-77
2022/08/07 07:36:37;;;;;;;1.80;1.27;;;12.40;99.90;;;;;;4995705;28;20510;-78
2022/08/07 07:39:29;;;;;;;1.50;1.30;;;12.40;99.90;;;;;;5013266;28;20088;-77
2022/08/07 07:42:35;;;;;;;3.75;1.50;;;12.40;99.90;;;;;;5013341;28;20024;-77
2022/08/07 07:45:05;;;;;;;5.50;1.83;;;12.30;99.90;;;;;;5008625;28;20495;-77
2022/08/07 07:47:36;;;;;;;5.25;1.88;;;12.30;99.90;;;;;;5012628;28;20026;-77
2022/08/07 07:50:05;;;;;;;5.00;1.90;;;12.30;99.90;;;;;;5013640;28;20033;-76
2022/08/07 07:52:35;;;;;;;2.28;1.20;;;12.30;99.90;;;;;;5016786;28;20475;-77
2022/08/07 07:55:05;;;;;;;2.63;1.55;;;12.20;99.90;;;;;;5016927;28;20026;-77
2022/08/07 07:57:41;;;;;;;5.07;1.45;;;12.20;99.90;;;;;;5016911;28;20025;-75
2022/08/07 08:00:11;;;;;;;9.27;1.92;;;12.20;99.90;;;;;;5015278;28;20045;-79
2022/08/07 08:02:52;;;;;;;7.43;1.73;;;12.20;99.90;;;;;;5016493;28;20034;-78
2022/08/07 08:05:23;;;;;;;3.53;1.10;;;12.10;99.90;;;;;;5016924;28;20022;-76
2022/08/07 08:08:02;;;;;;;5.38;2.03;;;12.10;99.90;;;;;;5016734;28;20026;-77
2022/08/07 08:10:31;;;;;;;1.48;1.17;;;12.10;99.90;;;;;;5016206;28;20096;-77
2022/08/07 08:13:02;;;;;;;2.47;1.50;;;12.00;99.90;;;;;;5016435;28;20056;-77
2022/08/07 08:15:35;;;;;;;2.55;1.55;;;12.00;99.90;;;;;;5016591;28;20014;-77
2022/08/07 08:18:05;;;;;;;2.83;1.45;;;12.00;99.90;;;;;;5016228;28;20040;-77
2022/08/07 08:20:35;;;;;;;5.03;1.55;;;12.00;99.90;;;;;;5016292;28;20026;-77
2022/08/07 08:28:48;;;;;;;3.97;2.22;;;11.90;99.90;;;;;;5015330;28;20036;-78
2022/08/07 08:31:21;;;;;;;2.22;1.80;;;11.90;99.90;;;;;;5016195;28;20459;-78
2022/08/07 08:33:52;;;;;;;6.53;1.83;;;11.80;99.90;;;;;;5016482;28;20022;-77
2022/08/07 08:36:26;;;;;;;4.88;1.98;;;11.80;99.90;;;;;;5015602;28;20090;-80
2022/08/07 08:38:56;;;;;;;7.72;2.30;;;11.70;99.90;;;;;;5015484;28;20076;-77
2022/08/07 08:41:27;;;;;;;4.43;2.25;;;11.80;99.90;;;;;;5015549;28;20014;-78
2022/08/07 08:44:32;;;;;;;2.95;1.80;;;11.80;99.90;;;;;;5015628;28;20040;-77
2022/08/07 08:47:42;;;;;;;4.65;1.98;;;11.70;99.90;;;;;;5016377;28;20057;-78
2022/08/07 08:50:31;;;;;;;4.28;2.03;;;11.70;99.90;;;;;;4955552;29;20361;-78
2022/08/07 08:53:31;;;;;;;3.63;2.55;;;11.60;99.90;;;;;;5013270;28;20037;-79
2022/08/07 08:56:14;;;;;;;6.18;1.83;;;11.60;99.90;;;;;;5015764;28;20053;-78
2022/08/07 08:58:57;;;;;;;5.18;2.50;;;11.60;99.90;;;;;;5014299;28;20025;-79
2022/08/07 09:01:43;;;;;;;3.63;1.70;;;11.50;99.90;;;;;;5015589;28;20033;-79
2022/08/07 09:04:29;;;;;;;6.55;2.28;;;11.50;99.90;;;;;;5015675;28;20034;-79
2022/08/07 09:06:56;;;;;;;;;;;11.50;99.90;;;;;;5016151;28;20022;-79
2022/08/07 09:09:46;;;;;;;6.05;2.08;;;11.50;99.90;;;;;;5015502;28;20430;-79
2022/08/07 09:12:27;;;;;;;3.42;1.63;;;11.50;99.90;;;;;;5015332;28;20120;-78
2022/08/07 09:15:36;;;;;;;3.70;1.35;;;11.50;99.90;;;;;;5015492;28;20022;-78
2022/08/07 09:18:30;;;;;;;14.10;2.00;;;11.50;99.90;;;;;;5015220;28;20018;-78
2022/08/07 09:21:28;;;;;;;3.33;1.50;;;11.40;99.90;;;;;;4997111;28;20030;-77
2022/08/07 09:24:02;;;;;;;4.45;2.10;;;11.40;99.90;;;;;;4997466;28;20030;-77
2022/08/07 09:26:46;;;;;;;9.68;2.38;;;11.30;99.90;;;;;;5015225;28;20495;-78
2022/08/07 09:29:26;;;;;;;4.28;1.67;;;11.30;99.90;;;;;;5015318;28;20030;-79
2022/08/07 09:32:19;;;;;;;3.92;2.30;;;11.30;99.90;;;;;;4997218;28;20475;-78
2022/08/07 09:35:11;;;;;;;9.40;2.28;;;11.30;99.90;;;;;;5014832;28;20101;-77
2022/08/07 09:38:10;;;;;;;5.82;2.38;;;11.30;99.90;;;;;;5014061;28;20108;-78
2022/08/07 09:41:18;;;;;;;4.78;1.35;;;11.30;99.90;;;;;;4994634;28;20069;-78
2022/08/07 09:43:52;;;;;;;4.00;2.22;;;11.30;99.90;;;;;;4985193;28;20092;-76
2022/08/07 09:46:48;;;;;;;7.30;1.90;;;11.30;99.90;;;;;;4997224;28;20026;-79
2022/08/07 09:49:25;;;;;;;3.25;1.67;;;11.30;99.90;;;;;;5008453;28;20041;-80
2022/08/07 09:52:06;;;;;;;3.10;1.67;;;11.20;99.90;;;;;;5014604;28;20041;-79
2022/08/07 09:54:55;;;;;;;5.70;2.03;;;11.20;99.90;;;;;;5014668;28;20018;-78
2022/08/07 09:57:53;;;;;;;6.68;1.70;;;11.20;99.90;;;;;;5014540;28;20018;-78
2022/08/07 10:00:32;;;;;;;2.25;1.67;;;11.10;99.90;;;;;;5014592;28;20022;-77
2022/08/07 10:03:36;;;;;;;2.55;1.42;;;11.10;99.90;;;;;;5014577;28;20034;-77
2022/08/07 10:06:47;;;;;;;2.80;1.50;;;11.10;99.90;;;;;;5014404;28;20493;-78
2022/08/07 10:09:44;;;;;;;3.92;1.83;;;11.10;99.90;;;;;;5015129;28;20030;-78
2022/08/07 10:12:24;;;;;;;6.72;1.67;;;11.10;99.90;;;;;;4975213;28;20055;-80
2022/08/07 10:15:30;;;;;;;2.58;1.63;;;11.00;99.90;;;;;;4995296;28;20053;-80
2022/08/07 10:18:16;;;;;;;3.03;1.60;;;11.00;99.90;;;;;;4925467;28;20055;-79
2022/08/07 10:21:14;;;;;;;3.78;1.77;;;11.00;99.90;;;;;;4977128;28;20049;-78
2022/08/07 10:23:59;;;;;;;2.97;2.17;;;11.00;99.90;;;;;;4994600;28;20034;-79
2022/08/07 10:26:43;;;;;;;6.57;1.98;;;11.00;99.90;;;;;;4994967;28;20029;-78
2022/08/07 10:29:29;;;;;;;2.35;1.50;;;11.00;99.90;;;;;;4994282;28;20057;-79
2022/08/07 10:32:25;;;;;;;3.05;1.40;;;11.00;99.90;;;;;;4994564;28;20021;-80
2022/08/07 10:35:26;;;;;;;3.05;1.52;;;10.90;99.90;;;;;;4994519;28;20026;-78
2022/08/07 10:38:11;;;;;;;5.63;1.70;;;10.90;99.90;;;;;;4994378;28;20076;-79
2022/08/07 10:40:48;;;;;;;2.58;1.38;;;10.90;99.90;;;;;;4994156;28;20081;-79
2022/08/07 10:43:33;;;;;;;3.35;1.30;;;10.90;99.90;;;;;;4994330;28;20538;-77
2022/08/07 10:46:13;;;;;;;2.55;1.40;;;10.90;99.90;;;;;;4994171;28;20093;-78
2022/08/07 10:49:12;;;;;;;5.18;1.85;;;10.90;99.90;;;;;;4994274;28;20026;-77
2022/08/07 10:51:49;;;;;;;2.67;1.17;;;11.00;99.90;;;;;;4994025;28;20030;-77
2022/08/07 10:54:39;;;;;;;2.67;1.35;;;10.90;99.90;;;;;;4994733;28;20022;-78
2022/08/07 10:57:26;;;;;;;7.32;1.13;;;11.00;99.90;;;;;;4993781;28;20030;-78
2022/08/07 11:00:11;;;;;;;1.17;0.98;;;11.00;99.90;;;;;;4994486;28;20026;-78
2022/08/07 11:02:59;;;;;;;3.88;1.10;;;11.00;99.90;;;;;;4994216;28;20038;-78
2022/08/07 11:05:41;;;;;;;1.42;1.10;;;11.00;99.90;;;;;;4993952;28;20022;-79
2022/08/07 11:08:30;;;;;;;5.80;1.20;;;11.00;99.90;;;;;;4993890;28;20034;-79
2022/08/07 11:11:20;;;;;;;2.25;0.90;;;11.00;99.90;;;;;;4996265;28;20406;-77
2022/08/07 11:14:14;;;;;;;1.33;0.80;;;11.00;99.90;;;;;;5013675;28;20194;-78
2022/08/07 11:17:30;;;;;;;1.42;1.02;;;11.00;99.90;;;;;;5013488;28;20022;-79
2022/08/07 11:20:03;;;;;;;1.55;0.95;;;10.90;99.90;;;;;;5005428;28;20050;-78
2022/08/07 11:22:50;;;;;;;1.90;1.00;;;10.90;99.90;;;;;;5013631;28;20474;-77
2022/08/07 11:25:41;;;;;;;1.80;1.20;;;10.90;99.90;;;;;;5017297;28;20475;-78
2022/08/07 11:28:24;;;;;;;1.30;0.88;;;10.80;99.90;;;;;;5017385;28;20030;-78
2022/08/07 11:31:19;;;;;;;1.48;0.73;;;10.80;99.90;;;;;;5017388;28;20022;-76
2022/08/07 11:34:10;;;;;;;1.83;0.88;;;10.80;99.90;;;;;;5017480;28;20033;-78
2022/08/07 11:36:56;;;;;;;2.72;1.38;;;10.70;99.90;;;;;;5017368;28;20029;-78
2022/08/07 11:39:46;;;;;;;4.85;1.52;;;10.70;99.90;;;;;;4999506;28;20111;-76
2022/08/07 11:42:26;;;;;;;3.40;1.00;;;10.70;99.90;;;;;;5016838;28;20403;-79
2022/08/07 11:45:18;;;;;;;3.20;1.48;;;10.60;99.90;;;;;;5017242;28;20034;-78
2022/08/07 11:47:58;;;;;;;2.53;0.68;;;10.60;99.90;;;;;;5017424;28;20037;-78
2022/08/07 11:50:59;;;;;;;2.72;1.00;;;10.50;99.90;;;;;;5017090;28;20076;-77
2022/08/07 11:53:42;;;;;;;1.70;0.75;;;10.50;99.90;;;;;;5017212;28;20475;-77
2022/08/07 11:56:28;;;;;;;2.13;0.90;;;10.50;99.90;;;;;;5017229;28;20030;-77
2022/08/07 11:59:02;;;;;;;2.03;1.00;;;10.40;99.90;;;;;;5016788;28;20474;-78
2022/08/07 12:01:29;;;;;;;0.77;0.60;;;10.40;99.90;;;;;;5016695;28;20026;-77
2022/08/07 12:04:22;;;;;;;2.78;0.93;;;10.40;99.90;;;;;;5017310;28;20034;-77
2022/08/07 12:07:36;;;;;;;3.08;1.17;;;10.30;99.90;;;;;;5016840;28;20057;-79
2022/08/07 12:10:13;;;;;;;2.80;0.90;;;10.30;99.90;;;;;;5002711;28;20402;-79
2022/08/07 12:12:56;;;;;;;1.58;0.90;;;10.20;99.90;;;;;;5016290;28;20046;-79
2022/08/07 12:15:32;;;;;;;2.38;0.93;;;10.10;99.90;;;;;;5016567;28;20022;-79
2022/08/07 12:18:49;;;;;;;2.63;1.00;;;10.10;99.90;;;;;;5016499;28;20026;-79
2022/08/07 12:21:36;;;;;;;2.00;1.08;;;10.10;99.90;;;;;;4955776;29;20023;-79
2022/08/07 12:24:31;;;;;;;3.38;1.13;;;10.00;99.90;;;;;;4956104;29;20043;-78
2022/08/07 12:27:16;;;;;;;3.50;1.38;;;9.90;99.90;;;;;;5004545;28;20037;-78
2022/08/07 12:30:00;;;;;;;3.08;1.90;;;9.90;99.90;;;;;;5010742;28;20906;-79
2022/08/07 12:32:46;;;;;;;5.82;1.95;;;9.80;99.90;;;;;;5013103;28;20052;-79
2022/08/07 12:35:15;;;;;;;4.63;2.05;;;9.80;99.90;;;;;;5014284;28;20033;-78
2022/08/07 12:37:47;;;;;;;3.78;1.90;;;9.70;99.90;;;;;;5015626;28;20022;-79
2022/08/07 12:40:20;;;;;;;2.83;1.58;;;9.70;99.90;;;;;;5015429;28;20057;-79
2022/08/07 12:42:55;;;;;;;2.60;1.70;;;9.70;99.90;;;;;;5015286;28;20127;-79
2022/08/07 12:45:30;;;;;;;4.00;1.90;;;9.70;99.90;;;;;;5013376;28;20056;-78
2022/08/07 12:48:27;;;;;;;2.88;1.63;;;9.60;99.90;;;;;;5012823;28;20018;-79
2022/08/07 12:51:32;;;;;;;8.18;1.83;;;9.60;99.90;;;;;;5014622;28;20022;-79
2022/08/07 12:54:40;;;;;;;2.30;1.33;;;9.60;99.90;;;;;;5012368;28;20030;-79
2022/08/07 12:57:09;;;;;;;5.13;1.88;;;9.60;99.90;;;;;;4949150;28;20026;-78
2022/08/07 12:59:37;;;;;;;2.55;1.40;;;9.50;99.90;;;;;;5015069;28;20080;-77
2022/08/07 13:02:46;;;;;;;4.22;1.45;;;9.50;99.90;;;;;;5014907;28;20026;-77
2022/08/07 13:05:51;;;;;;;5.43;2.22;;;9.50;99.90;;;;;;5014653;28;20046;-79
2022/08/07 13:08:31;;;;;;;2.55;1.50;;;9.50;99.90;;;;;;5012612;28;20026;-79
2022/08/07 13:11:19;;;;;;;1.90;1.33;;;9.50;99.90;;;;;;5011888;28;20494;-78
2022/08/07 13:13:56;;;;;;;1.70;1.20;;;9.50;99.90;;;;;;5013342;28;20072;-79
2022/08/07 13:16:55;;;;;;;2.92;1.40;;;9.40;99.90;;;;;;4995172;28;20026;-79
2022/08/07 13:19:47;;;;;;;1.90;1.15;;;9.40;99.90;;;;;;4971398;28;20038;-79
2022/08/07 13:22:31;;;;;;;2.75;1.20;;;9.40;99.90;;;;;;5013976;28;20026;-78
2022/08/07 13:25:38;;;;;;;6.68;1.58;;;9.30;99.90;;;;;;4997061;28;20029;-79
2022/08/07 13:28:15;;;;;;;2.67;1.90;;;9.30;99.90;;;;;;5014480;28;20022;-80
2022/08/07 13:30:56;;;;;;;3.58;1.20;;;9.30;99.90;;;;;;5014286;28;20026;-79
2022/08/07 13:33:37;;;;;;;5.32;1.65;;;9.30;99.90;;;;;;5012841;28;20077;-79
2022/08/07 13:36:16;;;;;;;4.65;1.38;;;9.40;99.90;;;;;;5012940;28;20030;-79
2022/08/07 13:39:08;;;;;;;4.28;1.25;;;9.40;99.90;;;;;;4994760;28;20029;-79
2022/08/07 13:41:56;;;;;;;2.08;1.48;;;9.40;99.90;;;;;;5012360;28;20014;-81
2022/08/07 13:44:27;;;;;;;1.70;1.40;;;9.40;99.90;;;;;;5012097;28;20084;-77
2022/08/07 13:46:58;;;;;;;3.53;1.10;;;9.40;99.90;;;;;;5013817;28;20018;-79
2022/08/07 13:49:33;;;;;;;3.47;1.30;;;9.40;99.90;;;;;;5012032;28;20026;-79